Weather at Yigi Airstrip

Public forecast

Using degrees Celsius for public forecast. Weather courtesy of forecast.io.

Closest aviation weather report (METAR) to Yigi Airstrip

Closest report is Dortheys Hiyo Eluay International Airport, 161.4 nm (298.8 km) NE.

2024/07/25 18:30 (retrieved 18 minutes ago)

WAJJ 251830Z VRB02KT 9999 BKN012 23/23 Q1010

Closest aviation forecast (TAF) to Yigi Airstrip

Closest forecast is Bandanaira Airport, 508.5 nm (941.7 km) W.

2024/07/25 18:40 (retrieved 8 minutes ago)

TAF WAPC 251700Z 2518/2606 13008KT 7000 SCT018